Irini — SYZA — position and weather

sailwx.info

Track history (hours):
 
Tides and Currents Weather Stations Pressure Air Temp Water Temp Dewpoint Dewpoint Depression Visibility Wind Speed Wind Dir Waves Ship Positions

Irini

Last reported at 2017-Feb-24 14:10 UTC. Time now 2017-Feb-26 07:39 UTC.
Position N 37°37' E 023°47'.

Length 137 m; draft 7.2 m.

Type: Ship (hazmat cat A). MMSI: 240052000.

Date/timePositionNaut miles runAvg speedWind from/ knotsBaromVisibWave heightAir tempDewpointWater temp
2017-Feb-24 14:10N 37°37' E 023°47'610.4
2017-Feb-24 13:33N 37°42' E 023°42'1110.8
2017-Feb-24 12:33N 37°52' E 023°36'7 7.5
2017-Feb-24 11:33N 37°59' E 023°33'3 3.3
2017-Feb-24 10:34N 38°01' E 023°36'0 0.0
2017-Feb-24 09:33N 38°01' E 023°36'0 0.0
2017-Feb-24 08:31N 38°01' E 023°36'0 0.0
2017-Feb-24 07:34N 38°01' E 023°36'0 0.0
2017-Feb-24 06:34N 38°01' E 023°36'0 0.0
2017-Feb-24 05:31N 38°01' E 023°36'0 0.0
2017-Feb-24 04:28N 38°01' E 023°36'0 0.0
2017-Feb-24 03:31N 38°01' E 023°36'0 0.0
2017-Feb-24 02:31N 38°01' E 023°36'0 0.0
2017-Feb-24 01:31N 38°01' E 023°36'0 0.0
2017-Feb-24 00:34N 38°01' E 023°36'0 0.0
2017-Feb-23 23:30N 38°01' E 023°36'0 0.0
2017-Feb-23 22:30N 38°01' E 023°36'0 0.0
2017-Feb-23 21:33N 38°01' E 023°36'0 0.0
2017-Feb-23 20:33N 38°01' E 023°36'0 0.0
2017-Feb-23 19:34N 38°01' E 023°36'0 0.0
2017-Feb-23 18:34N 38°01' E 023°36'2 1.5
2017-Feb-23 17:34N 38°01' E 023°34'1 1.4
2017-Feb-23 16:33N 38°01' E 023°32'0 0.0
2017-Feb-23 15:33N 38°01' E 023°32'0 0.0
2017-Feb-23 14:33N 38°01' E 023°32'0 0.0
2017-Feb-23 13:33N 38°01' E 023°32'0 0.0
2017-Feb-23 12:33N 38°01' E 023°32'0 0.0
2017-Feb-23 11:33N 38°01' E 023°32'0 0.0
2017-Feb-23 10:33N 38°01' E 023°32'0 0.1
2017-Feb-23 09:33N 38°01' E 023°32'3 3.0
2017-Feb-23 08:31N 38°01' E 023°36'0 0.0
2017-Feb-23 07:31N 38°01' E 023°36'0 0.0
2017-Feb-23 06:31N 38°01' E 023°36'0 0.0
2017-Feb-23 05:33N 38°01' E 023°36'0 0.0
2017-Feb-23 04:31N 38°01' E 023°36'0 0.0
2017-Feb-23 03:31N 38°01' E 023°36'0 0.0
2017-Feb-23 02:32N 38°01' E 023°36'0 0.0
2017-Feb-23 01:33N 38°01' E 023°36'0 0.0
2017-Feb-23 00:31N 38°01' E 023°36'0 0.0
2017-Feb-22 23:33N 38°01' E 023°36'0 0.0
2017-Feb-22 22:31N 38°01' E 023°36'0 0.0
2017-Feb-22 21:25N 38°01' E 023°36'0 0.0
2017-Feb-22 20:33N 38°01' E 023°36'0 0.0
2017-Feb-22 19:31N 38°01' E 023°36'0 0.0
2017-Feb-22 18:31N 38°01' E 023°36'0 0.0
2017-Feb-22 17:19N 38°01' E 023°36'0 0.0
2017-Feb-22 16:31N 38°01' E 023°36'0 0.0
2017-Feb-22 15:31N 38°01' E 023°36'4 4.4
2017-Feb-22 14:33N 37°57' E 023°34'3 2.8
2017-Feb-22 13:33N 37°55' E 023°36'0 0.2
2017-Feb-22 12:33N 37°55' E 023°36'1 0.7
2017-Feb-22 11:33N 37°55' E 023°36'1 0.5
2017-Feb-22 10:33N 37°54' E 023°35'1 1.0
2017-Feb-22 09:33N 37°55' E 023°35'0 0.5
2017-Feb-22 08:33N 37°55' E 023°36'0 0.1
2017-Feb-22 07:33N 37°55' E 023°36'8 7.7
2017-Feb-22 06:33N 37°48' E 023°41'1010.5
2017-Feb-22 05:33N 37°40' E 023°48'1411.2
2017-Feb-22 04:20N 37°37' E 024°05'1111.7
2017-Feb-22 03:24N 37°44' E 024°16'39 9.8
2017-Feb-21 23:24N 38°21' E 024°30'  
2017-Feb-16 11:21N 37°37' E 024°08'9 9.9
2017-Feb-16 10:29N 37°36' E 023°58'1010.7
2017-Feb-16 09:33N 37°39' E 023°46'1111.0
2017-Feb-16 08:33N 37°48' E 023°38'10 9.5
2017-Feb-16 07:34N 37°57' E 023°34'5 4.5
2017-Feb-16 06:33N 38°01' E 023°31'0 0.0
2017-Feb-16 05:33N 38°01' E 023°31'0 0.0
2017-Feb-16 04:33N 38°01' E 023°31'0 0.0
2017-Feb-16 03:33N 38°01' E 023°32'0 0.0
2017-Feb-16 02:30N 38°01' E 023°32'0 0.1
2017-Feb-16 01:33N 38°01' E 023°31'0 0.0
2017-Feb-16 00:33N 38°01' E 023°31'0 0.0
2017-Feb-15 23:33N 38°01' E 023°32'0 0.0
2017-Feb-15 22:33N 38°01' E 023°31'0 0.0
2017-Feb-15 21:33N 38°01' E 023°31'0 0.1
2017-Feb-15 20:33N 38°01' E 023°32'0 0.1
2017-Feb-15 19:33N 38°01' E 023°31'1 1.1
2017-Feb-15 18:27N 38°02' E 023°31'0 0.0
2017-Feb-15 17:33N 38°02' E 023°31'0 0.0
2017-Feb-15 16:33N 38°02' E 023°31'0 0.0
2017-Feb-15 15:33N 38°02' E 023°31'0 0.0
2017-Feb-15 14:33N 38°02' E 023°31'0 0.0
2017-Feb-15 13:33N 38°02' E 023°31'0 0.0
2017-Feb-15 12:33N 38°02' E 023°31'0 0.0
2017-Feb-15 11:33N 38°02' E 023°31'0 0.0
2017-Feb-15 10:33N 38°02' E 023°31'0 0.0
2017-Feb-15 09:33N 38°02' E 023°31'0 0.0
2017-Feb-15 08:33N 38°02' E 023°31'0 0.0
2017-Feb-15 07:33N 38°02' E 023°31'0 0.0
2017-Feb-15 06:27N 38°02' E 023°31'0 0.0
2017-Feb-15 05:33N 38°02' E 023°31'0 0.0
2017-Feb-15 04:30N 38°02' E 023°31'0 0.0
2017-Feb-15 03:33N 38°02' E 023°31'0 0.0
2017-Feb-15 02:33N 38°02' E 023°31'0 0.0
2017-Feb-15 01:33N 38°02' E 023°31'0 0.0
2017-Feb-15 00:33N 38°02' E 023°31'0 0.0
2017-Feb-14 23:33N 38°02' E 023°31'0 0.0
2017-Feb-14 22:33N 38°02' E 023°31'0 0.0
2017-Feb-14 21:33N 38°02' E 023°31'0 0.0
2017-Feb-14 20:33N 38°02' E 023°31'0 0.0
2017-Feb-14 19:33N 38°02' E 023°31'0 0.0
2017-Feb-14 18:30N 38°02' E 023°31'0 0.0
2017-Feb-14 17:30N 38°02' E 023°31'0 0.0
2017-Feb-14 16:30N 38°02' E 023°31'0 0.0
2017-Feb-14 15:33N 38°02' E 023°31'0 0.0
2017-Feb-14 14:30N 38°02' E 023°31'  
Track history (hours):
 
Tides and Currents Weather Stations Pressure Air Temp Water Temp Dewpoint Dewpoint Depression Visibility Wind Speed Wind Dir Waves Ship Positions

Irini

Last reported at 2017-Feb-24 14:10 UTC. Time now 2017-Feb-26 07:39 UTC.
Position N 37°37' E 023°47'.

Length 137 m; draft 7.2 m.

Type: Ship (hazmat cat A). MMSI: 240052000.

Date/timePositionNaut miles runAvg speedWind from/ knotsBaromVisibWave heightAir tempDewpointWater temp
2017-Feb-24 14:10N 37°37' E 023°47'610.4
2017-Feb-24 13:33N 37°42' E 023°42'1110.8
2017-Feb-24 12:33N 37°52' E 023°36'7 7.5
2017-Feb-24 11:33N 37°59' E 023°33'3 3.3
2017-Feb-24 10:34N 38°01' E 023°36'0 0.0
2017-Feb-24 09:33N 38°01' E 023°36'0 0.0
2017-Feb-24 08:31N 38°01' E 023°36'0 0.0
2017-Feb-24 07:34N 38°01' E 023°36'0 0.0
2017-Feb-24 06:34N 38°01' E 023°36'0 0.0
2017-Feb-24 05:31N 38°01' E 023°36'0 0.0
2017-Feb-24 04:28N 38°01' E 023°36'0 0.0
2017-Feb-24 03:31N 38°01' E 023°36'0 0.0
2017-Feb-24 02:31N 38°01' E 023°36'0 0.0
2017-Feb-24 01:31N 38°01' E 023°36'0 0.0
2017-Feb-24 00:34N 38°01' E 023°36'0 0.0
2017-Feb-23 23:30N 38°01' E 023°36'0 0.0
2017-Feb-23 22:30N 38°01' E 023°36'0 0.0
2017-Feb-23 21:33N 38°01' E 023°36'0 0.0
2017-Feb-23 20:33N 38°01' E 023°36'0 0.0
2017-Feb-23 19:34N 38°01' E 023°36'0 0.0
2017-Feb-23 18:34N 38°01' E 023°36'2 1.5
2017-Feb-23 17:34N 38°01' E 023°34'1 1.4
2017-Feb-23 16:33N 38°01' E 023°32'0 0.0
2017-Feb-23 15:33N 38°01' E 023°32'0 0.0
2017-Feb-23 14:33N 38°01' E 023°32'0 0.0
2017-Feb-23 13:33N 38°01' E 023°32'0 0.0
2017-Feb-23 12:33N 38°01' E 023°32'0 0.0
2017-Feb-23 11:33N 38°01' E 023°32'0 0.0
2017-Feb-23 10:33N 38°01' E 023°32'0 0.1
2017-Feb-23 09:33N 38°01' E 023°32'3 3.0
2017-Feb-23 08:31N 38°01' E 023°36'0 0.0
2017-Feb-23 07:31N 38°01' E 023°36'0 0.0
2017-Feb-23 06:31N 38°01' E 023°36'0 0.0
2017-Feb-23 05:33N 38°01' E 023°36'0 0.0
2017-Feb-23 04:31N 38°01' E 023°36'0 0.0
2017-Feb-23 03:31N 38°01' E 023°36'0 0.0
2017-Feb-23 02:32N 38°01' E 023°36'0 0.0
2017-Feb-23 01:33N 38°01' E 023°36'0 0.0
2017-Feb-23 00:31N 38°01' E 023°36'0 0.0
2017-Feb-22 23:33N 38°01' E 023°36'0 0.0
2017-Feb-22 22:31N 38°01' E 023°36'0 0.0
2017-Feb-22 21:25N 38°01' E 023°36'0 0.0
2017-Feb-22 20:33N 38°01' E 023°36'0 0.0
2017-Feb-22 19:31N 38°01' E 023°36'0 0.0
2017-Feb-22 18:31N 38°01' E 023°36'0 0.0
2017-Feb-22 17:19N 38°01' E 023°36'0 0.0
2017-Feb-22 16:31N 38°01' E 023°36'0 0.0
2017-Feb-22 15:31N 38°01' E 023°36'4 4.4
2017-Feb-22 14:33N 37°57' E 023°34'3 2.8
2017-Feb-22 13:33N 37°55' E 023°36'0 0.2
2017-Feb-22 12:33N 37°55' E 023°36'1 0.7
2017-Feb-22 11:33N 37°55' E 023°36'1 0.5
2017-Feb-22 10:33N 37°54' E 023°35'1 1.0
2017-Feb-22 09:33N 37°55' E 023°35'0 0.5
2017-Feb-22 08:33N 37°55' E 023°36'0 0.1
2017-Feb-22 07:33N 37°55' E 023°36'8 7.7
2017-Feb-22 06:33N 37°48' E 023°41'1010.5
2017-Feb-22 05:33N 37°40' E 023°48'1411.2
2017-Feb-22 04:20N 37°37' E 024°05'1111.7
2017-Feb-22 03:24N 37°44' E 024°16'39 9.8
2017-Feb-21 23:24N 38°21' E 024°30'  
2017-Feb-16 11:21N 37°37' E 024°08'9 9.9
2017-Feb-16 10:29N 37°36' E 023°58'1010.7
2017-Feb-16 09:33N 37°39' E 023°46'1111.0
2017-Feb-16 08:33N 37°48' E 023°38'10 9.5
2017-Feb-16 07:34N 37°57' E 023°34'5 4.5
2017-Feb-16 06:33N 38°01' E 023°31'0 0.0
2017-Feb-16 05:33N 38°01' E 023°31'0 0.0
2017-Feb-16 04:33N 38°01' E 023°31'0 0.0
2017-Feb-16 03:33N 38°01' E 023°32'0 0.0
2017-Feb-16 02:30N 38°01' E 023°32'0 0.1
2017-Feb-16 01:33N 38°01' E 023°31'0 0.0
2017-Feb-16 00:33N 38°01' E 023°31'0 0.0
2017-Feb-15 23:33N 38°01' E 023°32'0 0.0
2017-Feb-15 22:33N 38°01' E 023°31'0 0.0
2017-Feb-15 21:33N 38°01' E 023°31'0 0.1
2017-Feb-15 20:33N 38°01' E 023°32'0 0.1
2017-Feb-15 19:33N 38°01' E 023°31'1 1.1
2017-Feb-15 18:27N 38°02' E 023°31'0 0.0
2017-Feb-15 17:33N 38°02' E 023°31'0 0.0
2017-Feb-15 16:33N 38°02' E 023°31'0 0.0
2017-Feb-15 15:33N 38°02' E 023°31'0 0.0
2017-Feb-15 14:33N 38°02' E 023°31'0 0.0
2017-Feb-15 13:33N 38°02' E 023°31'0 0.0
2017-Feb-15 12:33N 38°02' E 023°31'0 0.0
2017-Feb-15 11:33N 38°02' E 023°31'0 0.0
2017-Feb-15 10:33N 38°02' E 023°31'0 0.0
2017-Feb-15 09:33N 38°02' E 023°31'0 0.0
2017-Feb-15 08:33N 38°02' E 023°31'0 0.0
2017-Feb-15 07:33N 38°02' E 023°31'0 0.0
2017-Feb-15 06:27N 38°02' E 023°31'0 0.0
2017-Feb-15 05:33N 38°02' E 023°31'0 0.0
2017-Feb-15 04:30N 38°02' E 023°31'0 0.0
2017-Feb-15 03:33N 38°02' E 023°31'0 0.0
2017-Feb-15 02:33N 38°02' E 023°31'0 0.0
2017-Feb-15 01:33N 38°02' E 023°31'0 0.0
2017-Feb-15 00:33N 38°02' E 023°31'0 0.0
2017-Feb-14 23:33N 38°02' E 023°31'0 0.0
2017-Feb-14 22:33N 38°02' E 023°31'0 0.0
2017-Feb-14 21:33N 38°02' E 023°31'0 0.0
2017-Feb-14 20:33N 38°02' E 023°31'0 0.0
2017-Feb-14 19:33N 38°02' E 023°31'0 0.0
2017-Feb-14 18:30N 38°02' E 023°31'0 0.0
2017-Feb-14 17:30N 38°02' E 023°31'0 0.0
2017-Feb-14 16:30N 38°02' E 023°31'0 0.0
2017-Feb-14 15:33N 38°02' E 023°31'0 0.0
2017-Feb-14 14:30N 38°02' E 023°31'  

Dump ship's entire track history